sensor_id;sensor_type;location;lat;lon;timestamp;pressure;altitude;pressure_sealevel;temperature;humidity
60897;BME280;46749;32.932;-117.130;2023-07-31T00:01:14;101149.75;;;18.43;62.37
60897;BME280;46749;32.932;-117.130;2023-07-31T00:03:40;101146.22;;;18.43;62.45
60897;BME280;46749;32.932;-117.130;2023-07-31T00:06:06;101145.34;;;18.44;62.76
60897;BME280;46749;32.932;-117.130;2023-07-31T00:08:32;101136.59;;;18.43;62.51
60897;BME280;46749;32.932;-117.130;2023-07-31T00:10:58;101140.09;;;18.42;62.71
60897;BME280;46749;32.932;-117.130;2023-07-31T00:13:24;101141.84;;;18.43;62.84
60897;BME280;46749;32.932;-117.130;2023-07-31T00:15:51;101144.47;;;18.43;62.47
60897;BME280;46749;32.932;-117.130;2023-07-31T00:18:17;101137.47;;;18.42;62.38
60897;BME280;46749;32.932;-117.130;2023-07-31T00:20:43;101139.22;;;18.43;62.44
60897;BME280;46749;32.932;-117.130;2023-07-31T00:23:09;101132.22;;;18.44;62.70
60897;BME280;46749;32.932;-117.130;2023-07-31T00:25:35;101139.22;;;18.45;62.55
60897;BME280;46749;32.932;-117.130;2023-07-31T00:28:01;101128.69;;;18.45;62.69
60897;BME280;46749;32.932;-117.130;2023-07-31T00:30:27;101129.59;;;18.45;62.49
60897;BME280;46749;32.932;-117.130;2023-07-31T00:32:54;101126.94;;;18.45;62.33
60897;BME280;46749;32.932;-117.130;2023-07-31T00:35:20;101125.19;;;18.46;62.58
60897;BME280;46749;32.932;-117.130;2023-07-31T00:37:46;101118.19;;;18.46;62.46
60897;BME280;46749;32.932;-117.130;2023-07-31T00:40:12;101112.94;;;18.48;62.66
60897;BME280;46749;32.932;-117.130;2023-07-31T00:42:39;101107.69;;;18.48;62.62
60897;BME280;46749;32.932;-117.130;2023-07-31T00:45:06;101101.53;;;18.47;62.72
60897;BME280;46749;32.932;-117.130;2023-07-31T00:47:32;101108.59;;;18.48;62.28
60897;BME280;46749;32.932;-117.130;2023-07-31T00:49:58;101105.09;;;18.49;62.69
60897;BME280;46749;32.932;-117.130;2023-07-31T00:52:25;101104.22;;;18.50;62.78
60897;BME280;46749;32.932;-117.130;2023-07-31T00:54:51;101105.09;;;18.51;62.36
60897;BME280;46749;32.932;-117.130;2023-07-31T00:57:17;101105.09;;;18.51;62.74
60897;BME280;46749;32.932;-117.130;2023-07-31T00:59:44;101108.59;;;18.51;62.61
60897;BME280;46749;32.932;-117.130;2023-07-31T01:02:12;101105.09;;;18.52;62.66
60897;BME280;46749;32.932;-117.130;2023-07-31T01:04:38;101102.47;;;18.52;62.65
60897;BME280;46749;32.932;-117.130;2023-07-31T01:07:27;101109.50;;;18.53;62.34
60897;BME280;46749;32.932;-117.130;2023-07-31T01:10:04;101103.41;;;18.54;62.36
60897;BME280;46749;32.932;-117.130;2023-07-31T01:12:34;101103.41;;;18.54;62.58
60897;BME280;46749;32.932;-117.130;2023-07-31T01:15:08;101096.38;;;18.55;62.58
60897;BME280;46749;32.932;-117.130;2023-07-31T01:17:38;101099.88;;;18.55;62.32
60897;BME280;46749;32.932;-117.130;2023-07-31T01:20:32;101101.66;;;18.56;62.56
60897;BME280;46749;32.932;-117.130;2023-07-31T01:26:12;101095.50;;;18.57;62.17
60897;BME280;46749;32.932;-117.130;2023-07-31T01:29:10;101096.41;;;18.59;62.18
60897;BME280;46749;32.932;-117.130;2023-07-31T01:31:39;101096.41;;;18.59;62.16
60897;BME280;46749;32.932;-117.130;2023-07-31T01:34:09;101099.03;;;18.59;62.23
60897;BME280;46749;32.932;-117.130;2023-07-31T01:36:36;101097.28;;;18.60;62.29
60897;BME280;46749;32.932;-117.130;2023-07-31T01:39:02;101095.53;;;18.59;62.55
60897;BME280;46749;32.932;-117.130;2023-07-31T01:41:29;101106.09;;;18.60;62.47
60897;BME280;46749;32.932;-117.130;2023-07-31T01:43:55;101105.22;;;18.62;62.16
60897;BME280;46749;32.932;-117.130;2023-07-31T01:46:22;101112.22;;;18.63;62.48
60897;BME280;46749;32.932;-117.130;2023-07-31T01:48:48;101109.59;;;18.63;62.23
60897;BME280;46749;32.932;-117.130;2023-07-31T01:51:14;101114.00;;;18.64;62.47
60897;BME280;46749;32.932;-117.130;2023-07-31T01:53:40;101108.72;;;18.64;62.50
60897;BME280;46749;32.932;-117.130;2023-07-31T01:56:06;101115.75;;;18.65;62.67
60897;BME280;46749;32.932;-117.130;2023-07-31T01:58:32;101114.00;;;18.65;62.42
60897;BME280;46749;32.932;-117.130;2023-07-31T02:00:59;101112.25;;;18.66;62.14
60897;BME280;46749;32.932;-117.130;2023-07-31T02:03:25;101118.38;;;18.66;62.36
60897;BME280;46749;32.932;-117.130;2023-07-31T02:05:51;101121.00;;;18.66;62.52
60897;BME280;46749;32.932;-117.130;2023-07-31T02:08:17;101120.22;;;18.67;62.24
60897;BME280;46749;32.932;-117.130;2023-07-31T02:10:43;101121.97;;;18.68;62.26
60897;BME280;46749;32.932;-117.130;2023-07-31T02:13:09;101129.88;;;18.68;62.69
60897;BME280;46749;32.932;-117.130;2023-07-31T02:15:36;101139.50;;;18.69;62.33
60897;BME280;46749;32.932;-117.130;2023-07-31T02:18:02;101136.00;;;18.69;62.39
60897;BME280;46749;32.932;-117.130;2023-07-31T02:20:29;101137.75;;;18.70;62.27
60897;BME280;46749;32.932;-117.130;2023-07-31T02:22:55;101136.88;;;18.71;62.05
60897;BME280;46749;32.932;-117.130;2023-07-31T02:25:21;101136.88;;;18.71;62.26
60897;BME280;46749;32.932;-117.130;2023-07-31T02:27:47;101136.88;;;18.71;62.19
60897;BME280;46749;32.932;-117.130;2023-07-31T02:30:13;101141.28;;;18.72;62.20
60897;BME280;46749;32.932;-117.130;2023-07-31T02:32:39;101143.91;;;18.72;62.53
60897;BME280;46749;32.932;-117.130;2023-07-31T02:35:06;101150.94;;;18.73;62.40
60897;BME280;46749;32.932;-117.130;2023-07-31T02:37:33;101153.56;;;18.73;62.13
60897;BME280;46749;32.932;-117.130;2023-07-31T02:39:59;101159.75;;;18.75;62.15
60897;BME280;46749;32.932;-117.130;2023-07-31T02:42:25;101157.97;;;18.74;62.29
60897;BME280;46749;32.932;-117.130;2023-07-31T02:44:51;101173.78;;;18.75;62.46
60897;BME280;46749;32.932;-117.130;2023-07-31T02:47:22;101167.63;;;18.75;61.98
60897;BME280;46749;32.932;-117.130;2023-07-31T02:49:48;101171.16;;;18.75;62.40
60897;BME280;46749;32.932;-117.130;2023-07-31T02:52:14;101172.03;;;18.76;62.50
60897;BME280;46749;32.932;-117.130;2023-07-31T02:54:40;101169.41;;;18.76;62.26
60897;BME280;46749;32.932;-117.130;2023-07-31T02:57:07;101180.81;;;18.76;62.49
60897;BME280;46749;32.932;-117.130;2023-07-31T02:59:33;101176.41;;;18.75;62.38
60897;BME280;46749;32.932;-117.130;2023-07-31T03:01:59;101184.31;;;18.77;62.15
60897;BME280;46749;32.932;-117.130;2023-07-31T03:04:25;101179.06;;;18.77;62.12
60897;BME280;46749;32.932;-117.130;2023-07-31T03:06:51;101179.06;;;18.77;62.19
60897;BME280;46749;32.932;-117.130;2023-07-31T03:09:17;101181.69;;;18.77;62.44
60897;BME280;46749;32.932;-117.130;2023-07-31T03:11:44;101178.19;;;18.78;62.38
60897;BME280;46749;32.932;-117.130;2023-07-31T03:14:11;101172.97;;;18.79;62.05
60897;BME280;46749;32.932;-117.130;2023-07-31T03:16:37;101171.16;;;18.78;62.31
60897;BME280;46749;32.932;-117.130;2023-07-31T03:19:03;101172.97;;;18.79;61.99
60897;BME280;46749;32.932;-117.130;2023-07-31T03:21:29;101172.03;;;18.79;62.26
60897;BME280;46749;32.932;-117.130;2023-07-31T03:23:56;101177.31;;;18.79;62.12
60897;BME280;46749;32.932;-117.130;2023-07-31T03:26:22;101172.03;;;18.79;62.00
60897;BME280;46749;32.932;-117.130;2023-07-31T03:28:48;101172.97;;;18.79;62.25
60897;BME280;46749;32.932;-117.130;2023-07-31T03:31:15;101165.06;;;18.79;62.29
60897;BME280;46749;32.932;-117.130;2023-07-31T03:33:41;101168.56;;;18.80;62.07
60897;BME280;46749;32.932;-117.130;2023-07-31T03:36:07;101172.03;;;18.79;61.92
60897;BME280;46749;32.932;-117.130;2023-07-31T03:38:34;101167.69;;;18.79;61.97
60897;BME280;46749;32.932;-117.130;2023-07-31T03:41:00;101168.56;;;18.80;62.35
60897;BME280;46749;32.932;-117.130;2023-07-31T03:43:27;101171.19;;;18.80;61.93
60897;BME280;46749;32.932;-117.130;2023-07-31T03:45:54;101169.44;;;18.80;62.15
60897;BME280;46749;32.932;-117.130;2023-07-31T03:48:20;101160.69;;;18.80;62.30
60897;BME280;46749;32.932;-117.130;2023-07-31T03:50:46;101163.31;;;18.80;62.16
60897;BME280;46749;32.932;-117.130;2023-07-31T03:53:12;101163.28;;;18.78;62.32
60897;BME280;46749;32.932;-117.130;2023-07-31T03:55:38;101159.81;;;18.79;62.15
60897;BME280;46749;32.932;-117.130;2023-07-31T03:58:05;101155.38;;;18.78;62.04
60897;BME280;46749;32.932;-117.130;2023-07-31T04:00:31;101156.25;;;18.79;62.11
60897;BME280;46749;32.932;-117.130;2023-07-31T04:02:57;101150.13;;;18.78;62.20
60897;BME280;46749;32.932;-117.130;2023-07-31T04:05:23;101154.50;;;18.78;62.07
60897;BME280;46749;32.932;-117.130;2023-07-31T04:07:49;101149.22;;;18.78;62.08
60897;BME280;46749;32.932;-117.130;2023-07-31T04:10:15;101160.63;;;18.78;61.97
60897;BME280;46749;32.932;-117.130;2023-07-31T04:12:42;101152.72;;;18.77;62.01
60897;BME280;46749;32.932;-117.130;2023-07-31T04:15:08;101163.25;;;18.77;62.38
60897;BME280;46749;32.932;-117.130;2023-07-31T04:17:34;101171.16;;;18.77;62.00
60897;BME280;46749;32.932;-117.130;2023-07-31T04:20:00;101167.66;;;18.76;62.34
60897;BME280;46749;32.932;-117.130;2023-07-31T04:22:27;101173.78;;;18.77;62.40
60897;BME280;46749;32.932;-117.130;2023-07-31T04:24:53;101172.91;;;18.75;62.17
60897;BME280;46749;32.932;-117.130;2023-07-31T04:27:19;101175.53;;;18.75;62.55
60897;BME280;46749;32.932;-117.130;2023-07-31T04:29:46;101177.28;;;18.76;62.36
60897;BME280;46749;32.932;-117.130;2023-07-31T04:32:13;101186.94;;;18.77;62.24
60897;BME280;46749;32.932;-117.130;2023-07-31T04:34:42;101177.28;;;18.76;62.00
60897;BME280;46749;32.932;-117.130;2023-07-31T04:37:08;101177.28;;;18.76;62.20
60897;BME280;46749;32.932;-117.130;2023-07-31T04:39:35;101177.28;;;18.76;62.11
60897;BME280;46749;32.932;-117.130;2023-07-31T04:42:01;101182.56;;;18.76;62.34
60897;BME280;46749;32.932;-117.130;2023-07-31T04:44:27;101193.06;;;18.76;62.00
60897;BME280;46749;32.932;-117.130;2023-07-31T04:46:53;101193.06;;;18.76;62.04
60897;BME280;46749;32.932;-117.130;2023-07-31T04:49:19;101198.34;;;18.76;62.08
60897;BME280;46749;32.932;-117.130;2023-07-31T04:51:45;101198.34;;;18.76;62.15
60897;BME280;46749;32.932;-117.130;2023-07-31T04:54:12;101196.59;;;18.76;62.46
60897;BME280;46749;32.932;-117.130;2023-07-31T04:56:40;101193.06;;;18.76;62.12
60897;BME280;46749;32.932;-117.130;2023-07-31T04:59:07;101200.97;;;18.76;62.06
60897;BME280;46749;32.932;-117.130;2023-07-31T05:01:33;101193.06;;;18.76;62.11
60897;BME280;46749;32.932;-117.130;2023-07-31T05:03:59;101189.56;;;18.77;62.27
60897;BME280;46749;32.932;-117.130;2023-07-31T05:06:25;101205.38;;;18.77;62.12
60897;BME280;46749;32.932;-117.130;2023-07-31T05:08:52;101197.47;;;18.77;62.29
60897;BME280;46749;32.932;-117.130;2023-07-31T05:11:18;101194.84;;;18.77;62.04
60897;BME280;46749;32.932;-117.130;2023-07-31T05:13:44;101195.72;;;18.77;61.98
60897;BME280;46749;32.932;-117.130;2023-07-31T05:16:10;101192.22;;;18.77;62.34
60897;BME280;46749;32.932;-117.130;2023-07-31T05:18:36;101198.34;;;18.76;62.28
60897;BME280;46749;32.932;-117.130;2023-07-31T05:21:02;101197.47;;;18.77;61.96
60897;BME280;46749;32.932;-117.130;2023-07-31T05:23:29;101193.97;;;18.78;62.15
60897;BME280;46749;32.932;-117.130;2023-07-31T05:26:03;101196.59;;;18.78;62.20
60897;BME280;46749;32.932;-117.130;2023-07-31T05:28:30;101194.84;;;18.77;62.27
60897;BME280;46749;32.932;-117.130;2023-07-31T05:31:00;101193.97;;;18.76;62.09
60897;BME280;46749;32.932;-117.130;2023-07-31T05:33:27;101193.97;;;18.76;62.03
60897;BME280;46749;32.932;-117.130;2023-07-31T05:35:53;101188.69;;;18.76;62.01
60897;BME280;46749;32.932;-117.130;2023-07-31T05:38:19;101185.19;;;18.76;62.21
60897;BME280;46749;32.932;-117.130;2023-07-31T05:40:46;101190.44;;;18.76;61.96
60897;BME280;46749;32.932;-117.130;2023-07-31T05:43:13;101188.69;;;18.76;61.84
60897;BME280;46749;32.932;-117.130;2023-07-31T05:45:39;101186.94;;;18.75;61.89
60897;BME280;46749;32.932;-117.130;2023-07-31T05:48:06;101186.06;;;18.75;61.84
60897;BME280;46749;32.932;-117.130;2023-07-31T05:50:32;101181.69;;;18.75;62.26
60897;BME280;46749;32.932;-117.130;2023-07-31T05:52:58;101183.44;;;18.75;61.87
60897;BME280;46749;32.932;-117.130;2023-07-31T05:55:25;101185.19;;;18.74;62.10
60897;BME280;46749;32.932;-117.130;2023-07-31T05:57:54;101187.78;;;18.73;62.17
60897;BME280;46749;32.932;-117.130;2023-07-31T06:00:20;101187.81;;;18.74;62.01
60897;BME280;46749;32.932;-117.130;2023-07-31T06:02:47;101192.19;;;18.74;62.33
60897;BME280;46749;32.932;-117.130;2023-07-31T06:05:13;101191.31;;;18.73;62.26
60897;BME280;46749;32.932;-117.130;2023-07-31T06:07:40;101193.94;;;18.73;61.89
60897;BME280;46749;32.932;-117.130;2023-07-31T06:10:06;101194.81;;;18.74;62.13
60897;BME280;46749;32.932;-117.130;2023-07-31T06:12:34;101203.56;;;18.73;61.92
60897;BME280;46749;32.932;-117.130;2023-07-31T06:15:01;101208.81;;;18.73;61.97
60897;BME280;46749;32.932;-117.130;2023-07-31T06:17:27;101201.78;;;18.72;62.06
60897;BME280;46749;32.932;-117.130;2023-07-31T06:19:54;101194.78;;;18.71;62.08
60897;BME280;46749;32.932;-117.130;2023-07-31T06:22:20;101194.78;;;18.71;62.12
60897;BME280;46749;32.932;-117.130;2023-07-31T06:24:47;101206.19;;;18.71;61.95
60897;BME280;46749;32.932;-117.130;2023-07-31T06:27:13;101205.31;;;18.71;62.30
60897;BME280;46749;32.932;-117.130;2023-07-31T06:29:39;101208.81;;;18.70;62.17
60897;BME280;46749;32.932;-117.130;2023-07-31T06:32:05;101213.19;;;18.69;62.14
60897;BME280;46749;32.932;-117.130;2023-07-31T06:34:32;101200.03;;;18.69;62.09
60897;BME280;46749;32.932;-117.130;2023-07-31T06:36:59;101191.25;;;18.69;62.01
60897;BME280;46749;32.932;-117.130;2023-07-31T06:39:25;101193.00;;;18.68;61.92
60897;BME280;46749;32.932;-117.130;2023-07-31T06:41:52;101197.38;;;18.68;62.33
60897;BME280;46749;32.932;-117.130;2023-07-31T06:44:18;101194.75;;;18.68;62.28
60897;BME280;46749;32.932;-117.130;2023-07-31T06:46:44;101200.03;;;18.68;62.33
60897;BME280;46749;32.932;-117.130;2023-07-31T06:49:11;101192.97;;;18.67;62.11
60897;BME280;46749;32.932;-117.130;2023-07-31T06:51:37;101192.97;;;18.67;62.35
60897;BME280;46749;32.932;-117.130;2023-07-31T06:54:04;101198.22;;;18.67;62.11
60897;BME280;46749;32.932;-117.130;2023-07-31T06:56:30;101195.56;;;18.65;62.05
60897;BME280;46749;32.932;-117.130;2023-07-31T06:58:56;101198.19;;;18.65;62.12
60897;BME280;46749;32.932;-117.130;2023-07-31T07:01:22;101195.53;;;18.64;62.35
60897;BME280;46749;32.932;-117.130;2023-07-31T07:03:48;101199.94;;;18.65;62.21
60897;BME280;46749;32.932;-117.130;2023-07-31T07:06:19;101206.06;;;18.64;62.27
60897;BME280;46749;32.932;-117.130;2023-07-31T07:08:45;101206.94;;;18.64;62.17
60897;BME280;46749;32.932;-117.130;2023-07-31T07:11:11;101206.06;;;18.64;62.24
60897;BME280;46749;32.932;-117.130;2023-07-31T07:13:38;101206.94;;;18.63;62.34
60897;BME280;46749;32.932;-117.130;2023-07-31T07:16:04;101203.44;;;18.62;62.13
60897;BME280;46749;32.932;-117.130;2023-07-31T07:18:30;101201.69;;;18.63;62.14
60897;BME280;46749;32.932;-117.130;2023-07-31T07:20:56;101206.06;;;18.62;62.17
60897;BME280;46749;32.932;-117.130;2023-07-31T07:23:24;101207.81;;;18.62;62.48
60897;BME280;46749;32.932;-117.130;2023-07-31T07:25:50;101203.41;;;18.60;62.23
60897;BME280;46749;32.932;-117.130;2023-07-31T07:28:17;101202.50;;;18.60;62.33
60897;BME280;46749;32.932;-117.130;2023-07-31T07:30:43;101201.63;;;18.59;62.33
60897;BME280;46749;32.932;-117.130;2023-07-31T07:33:09;101197.22;;;18.58;62.19
60897;BME280;46749;32.932;-117.130;2023-07-31T07:35:36;101196.34;;;18.58;62.03
60897;BME280;46749;32.932;-117.130;2023-07-31T07:38:03;101192.84;;;18.57;62.14
60897;BME280;46749;32.932;-117.130;2023-07-31T07:40:29;101194.59;;;18.57;62.23
60897;BME280;46749;32.932;-117.130;2023-07-31T07:42:55;101197.22;;;18.57;62.04
60897;BME280;46749;32.932;-117.130;2023-07-31T07:45:22;101193.72;;;18.56;62.33
60897;BME280;46749;32.932;-117.130;2023-07-31T07:47:48;101180.56;;;18.56;62.50
60897;BME280;46749;32.932;-117.130;2023-07-31T07:50:14;101178.81;;;18.55;62.19
60897;BME280;46749;32.932;-117.130;2023-07-31T07:52:40;101187.56;;;18.56;62.31
60897;BME280;46749;32.932;-117.130;2023-07-31T07:55:06;101184.94;;;18.56;62.12
60897;BME280;46749;32.932;-117.130;2023-07-31T07:57:33;101192.84;;;18.56;62.37
60897;BME280;46749;32.932;-117.130;2023-07-31T07:59:59;101184.94;;;18.56;62.25
60897;BME280;46749;32.932;-117.130;2023-07-31T08:02:25;101184.94;;;18.54;62.07
60897;BME280;46749;32.932;-117.130;2023-07-31T08:04:51;101181.38;;;18.54;62.47
60897;BME280;46749;32.932;-117.130;2023-07-31T08:07:17;101178.75;;;18.54;62.42
60897;BME280;46749;32.932;-117.130;2023-07-31T08:09:43;101183.16;;;18.53;62.51
60897;BME280;46749;32.932;-117.130;2023-07-31T08:12:10;101175.25;;;18.53;62.49
60897;BME280;46749;32.932;-117.130;2023-07-31T08:14:36;101181.38;;;18.52;62.35
60897;BME280;46749;32.932;-117.130;2023-07-31T08:17:02;101177.00;;;18.51;62.11
60897;BME280;46749;32.932;-117.130;2023-07-31T08:19:28;101176.13;;;18.52;62.51
60897;BME280;46749;32.932;-117.130;2023-07-31T08:21:54;101173.50;;;18.52;62.49
60897;BME280;46749;32.932;-117.130;2023-07-31T08:24:21;101176.13;;;18.52;62.47
60897;BME280;46749;32.932;-117.130;2023-07-31T08:26:47;101176.13;;;18.51;62.44
60897;BME280;46749;32.932;-117.130;2023-07-31T08:29:14;101169.09;;;18.51;62.07
60897;BME280;46749;32.932;-117.130;2023-07-31T08:31:40;101175.22;;;18.50;62.43
60897;BME280;46749;32.932;-117.130;2023-07-31T08:34:06;101177.00;;;18.51;62.01
60897;BME280;46749;32.932;-117.130;2023-07-31T08:36:32;101169.97;;;18.50;62.42
60897;BME280;46749;32.932;-117.130;2023-07-31T08:38:58;101169.97;;;18.50;62.01
60897;BME280;46749;32.932;-117.130;2023-07-31T08:41:24;101169.97;;;18.50;62.52
60897;BME280;46749;32.932;-117.130;2023-07-31T08:43:52;101175.22;;;18.50;62.16
60897;BME280;46749;32.932;-117.130;2023-07-31T08:46:19;101168.22;;;18.49;62.25
60897;BME280;46749;32.932;-117.130;2023-07-31T08:48:46;101165.59;;;18.49;62.45
60897;BME280;46749;32.932;-117.130;2023-07-31T08:51:14;101155.94;;;18.48;62.17
60897;BME280;46749;32.932;-117.130;2023-07-31T08:53:40;101149.81;;;18.49;62.37
60897;BME280;46749;32.932;-117.130;2023-07-31T08:56:07;101155.03;;;18.48;62.11
60897;BME280;46749;32.932;-117.130;2023-07-31T08:58:35;101149.75;;;18.48;62.18
60897;BME280;46749;32.932;-117.130;2023-07-31T09:01:04;101152.41;;;18.48;62.44
60897;BME280;46749;32.932;-117.130;2023-07-31T09:03:34;101153.25;;;18.47;62.31
60897;BME280;46749;32.932;-117.130;2023-07-31T09:06:03;101152.41;;;18.48;62.28
60897;BME280;46749;32.932;-117.130;2023-07-31T09:08:32;101142.75;;;18.47;61.94
60897;BME280;46749;32.932;-117.130;2023-07-31T09:11:02;101146.25;;;18.46;62.33
60897;BME280;46749;32.932;-117.130;2023-07-31T09:13:32;101144.50;;;18.46;62.42
60897;BME280;46749;32.932;-117.130;2023-07-31T09:15:58;101147.13;;;18.45;61.98
60897;BME280;46749;32.932;-117.130;2023-07-31T09:18:25;101138.34;;;18.44;62.23
60897;BME280;46749;32.932;-117.130;2023-07-31T09:21:05;101139.22;;;18.45;62.12
60897;BME280;46749;32.932;-117.130;2023-07-31T09:23:42;101133.97;;;18.43;62.15
60897;BME280;46749;32.932;-117.130;2023-07-31T09:26:09;101131.31;;;18.43;62.19
60897;BME280;46749;32.932;-117.130;2023-07-31T09:28:35;101126.06;;;18.42;62.10
60897;BME280;46749;32.932;-117.130;2023-07-31T09:31:01;101133.94;;;18.42;62.12
60897;BME280;46749;32.932;-117.130;2023-07-31T09:33:27;101120.78;;;18.42;62.11
60897;BME280;46749;32.932;-117.130;2023-07-31T09:35:53;101117.25;;;18.41;62.08
60897;BME280;46749;32.932;-117.130;2023-07-31T09:38:19;101117.25;;;18.41;62.36
60897;BME280;46749;32.932;-117.130;2023-07-31T09:40:47;101123.38;;;18.40;62.30
60897;BME280;46749;32.932;-117.130;2023-07-31T09:43:21;101122.50;;;18.40;62.30
60897;BME280;46749;32.932;-117.130;2023-07-31T09:45:47;101122.50;;;18.40;62.05
60897;BME280;46749;32.932;-117.130;2023-07-31T09:48:17;101123.38;;;18.39;62.05
60897;BME280;46749;32.932;-117.130;2023-07-31T09:50:46;101119.88;;;18.40;62.01
60897;BME280;46749;32.932;-117.130;2023-07-31T09:53:12;101120.75;;;18.39;61.99
60897;BME280;46749;32.932;-117.130;2023-07-31T09:55:40;101124.25;;;18.38;62.22
60897;BME280;46749;32.932;-117.130;2023-07-31T09:58:08;101126.88;;;18.38;62.21
60897;BME280;46749;32.932;-117.130;2023-07-31T10:00:35;101131.25;;;18.37;62.35
60897;BME280;46749;32.932;-117.130;2023-07-31T10:03:06;101128.63;;;18.37;61.99
60897;BME280;46749;32.932;-117.130;2023-07-31T10:05:38;101131.25;;;18.37;62.29
60897;BME280;46749;32.932;-117.130;2023-07-31T10:08:07;101140.03;;;18.36;62.15
60897;BME280;46749;32.932;-117.130;2023-07-31T10:10:36;101141.78;;;18.36;61.98
60897;BME280;46749;32.932;-117.130;2023-07-31T10:13:04;101146.16;;;18.37;62.34
60897;BME280;46749;32.932;-117.130;2023-07-31T10:15:31;101143.50;;;18.35;62.27
60897;BME280;46749;32.932;-117.130;2023-07-31T10:17:58;101138.22;;;18.35;61.96
60897;BME280;46749;32.932;-117.130;2023-07-31T10:20:26;101139.09;;;18.34;62.33
60897;BME280;46749;32.932;-117.130;2023-07-31T10:22:54;101136.47;;;18.34;62.19
60897;BME280;46749;32.932;-117.130;2023-07-31T10:25:22;101129.44;;;18.33;62.12
60897;BME280;46749;32.932;-117.130;2023-07-31T10:27:50;101126.81;;;18.33;62.02
60897;BME280;46749;32.932;-117.130;2023-07-31T10:30:22;101134.72;;;18.33;61.93
60897;BME280;46749;32.932;-117.130;2023-07-31T10:32:51;101138.22;;;18.32;62.13
60897;BME280;46749;32.932;-117.130;2023-07-31T10:35:19;101146.09;;;18.32;62.33
60897;BME280;46749;32.932;-117.130;2023-07-31T10:37:48;101145.22;;;18.31;62.32
60897;BME280;46749;32.932;-117.130;2023-07-31T10:40:24;101142.59;;;18.30;62.01
60897;BME280;46749;32.932;-117.130;2023-07-31T10:42:52;101129.44;;;18.30;62.34
60897;BME280;46749;32.932;-117.130;2023-07-31T10:45:36;101139.94;;;18.30;62.00
60897;BME280;46749;32.932;-117.130;2023-07-31T10:48:04;101140.78;;;18.29;61.78
60897;BME280;46749;32.932;-117.130;2023-07-31T10:50:32;101134.69;;;18.30;62.35
60897;BME280;46749;32.932;-117.130;2023-07-31T10:53:02;101138.16;;;18.29;62.32
60897;BME280;46749;32.932;-117.130;2023-07-31T10:55:38;101139.03;;;18.28;62.10
60897;BME280;46749;32.932;-117.130;2023-07-31T10:58:13;101141.66;;;18.28;62.04
60897;BME280;46749;32.932;-117.130;2023-07-31T11:00:44;101139.91;;;18.27;62.31
60897;BME280;46749;32.932;-117.130;2023-07-31T11:03:13;101134.63;;;18.27;62.24
60897;BME280;46749;32.932;-117.130;2023-07-31T11:08:24;101139.00;;;18.26;62.16
60897;BME280;46749;32.932;-117.130;2023-07-31T11:11:13;101137.25;;;18.25;62.02
60897;BME280;46749;32.932;-117.130;2023-07-31T11:13:41;101133.75;;;18.25;62.25
60897;BME280;46749;32.932;-117.130;2023-07-31T11:16:08;101133.75;;;18.25;62.07
60897;BME280;46749;32.932;-117.130;2023-07-31T11:18:35;101129.38;;;18.24;62.04
60897;BME280;46749;32.932;-117.130;2023-07-31T11:21:04;101123.22;;;18.23;62.13
60897;BME280;46749;32.932;-117.130;2023-07-31T11:23:30;101130.22;;;18.23;62.36
60897;BME280;46749;32.932;-117.130;2023-07-31T11:25:59;101127.59;;;18.23;62.16
60897;BME280;46749;32.932;-117.130;2023-07-31T11:28:26;101128.44;;;18.22;62.35
60897;BME280;46749;32.932;-117.130;2023-07-31T11:30:52;101137.22;;;18.22;62.07
60897;BME280;46749;32.932;-117.130;2023-07-31T11:33:21;101129.31;;;18.21;62.26
60897;BME280;46749;32.932;-117.130;2023-07-31T11:35:48;101133.69;;;18.20;62.40
60897;BME280;46749;32.932;-117.130;2023-07-31T11:38:33;101132.81;;;18.20;62.14
60897;BME280;46749;32.932;-117.130;2023-07-31T11:41:03;101143.31;;;18.20;62.18
60897;BME280;46749;32.932;-117.130;2023-07-31T11:43:32;101138.94;;;18.20;62.19
60897;BME280;46749;32.932;-117.130;2023-07-31T11:46:00;101136.31;;;18.19;62.03
60897;BME280;46749;32.932;-117.130;2023-07-31T11:48:34;101138.94;;;18.19;62.02
60897;BME280;46749;32.932;-117.130;2023-07-31T11:51:05;101141.56;;;18.19;61.91
60897;BME280;46749;32.932;-117.130;2023-07-31T11:56:04;101138.03;;;18.17;62.29
60897;BME280;46749;32.932;-117.130;2023-07-31T11:58:32;101142.38;;;18.16;62.05
60897;BME280;46749;32.932;-117.130;2023-07-31T12:01:00;101141.50;;;18.16;61.88
60897;BME280;46749;32.932;-117.130;2023-07-31T12:03:27;101152.03;;;18.16;62.25
60897;BME280;46749;32.932;-117.130;2023-07-31T12:05:54;101144.13;;;18.14;61.96
60897;BME280;46749;32.932;-117.130;2023-07-31T12:08:24;101152.03;;;18.14;62.29
60897;BME280;46749;32.932;-117.130;2023-07-31T12:10:51;101152.91;;;18.15;61.93
60897;BME280;46749;32.932;-117.130;2023-07-31T12:13:25;101159.03;;;18.14;61.92
60897;BME280;46749;32.932;-117.130;2023-07-31T12:15:57;101153.75;;;18.12;61.93
60897;BME280;46749;32.932;-117.130;2023-07-31T12:18:28;101154.63;;;18.13;62.06
60897;BME280;46749;32.932;-117.130;2023-07-31T12:20:59;101157.25;;;18.13;62.26
60897;BME280;46749;32.932;-117.130;2023-07-31T12:23:31;101158.13;;;18.12;61.91
60897;BME280;46749;32.932;-117.130;2023-07-31T12:28:44;101150.25;;;18.12;62.20
60897;BME280;46749;32.932;-117.130;2023-07-31T12:31:18;101159.00;;;18.11;62.03
60897;BME280;46749;32.932;-117.130;2023-07-31T12:33:45;101157.22;;;18.10;62.24